Wetter

Diese Seite ist kein Flugwetterbriefingsystem zum Zwecke der meteorologischen Flugvorbereitung gemäß den Durchführungsverordnungen Nr. 2018/1139 (Annex V) & 923/2012 (SERA.2010). Für diesen Zweck nutzen Sie bitte die speziellen Flugwetterbriefingsysteme oder die individuelle Flugwetterberatung.

Unser Platzwetter:

(um das Bild zu aktualisieren oder bei unvollständig geladenem Bild den Reload-Button des Browsers drücken)

METAR: ETNN 191520Z 30019KT 9999 FEW020CB BKN040 08/03 Q1009 BLU
TAF: TAF ETNN 190708Z 1908/1917 25018KT 8000 RA FEW012 BKN020 TEMPO 1908/1909 27020G31KT 4000 RA BKN010 BKN020 BKN031 BECMG 1909/1911 28015G25KT 9999 NSW FEW012 BKN040 TEMPO 1913/1917 30020G33KT 4000 SHRA BKN012CB
SR / SS: 04:29 / 18:35 UTC (Vettweiss-Soller 19.04.2024)
[Quelle: ADDS]

decodiert:
Metar von: 19.04.24, 17:20 (Lokalzeit)
Flugregeln: VFR
Wind: aus 300° (WNW) mit 35 km/h
Sichtweite: 10 km oder mehr
Wolken: leicht bewölkt bei 2000 ft (610 m)
                stark bewölkt bei 4000 ft (1219 m)
Temperatur: 8 °C
Taupunkt: 3 °C, relative Luftfeuchtigkeit 71 %
Luftdruck: 1009 hPa

Aktuelle Windrichtung in Relation zu unserer Bahn:

 

Aktuelle Dichtehöhe bei uns am Platz: 43 ft.